Government of Jersey

Home Log in

METAR EGJJ 071520Z 03009KT CAVOK 29/12 Q1016

METAR EGJB 071520Z VRB03KT CAVOK 31/12 Q1016

METAR EGJA 071520Z 09012KT CAVOK 28/15 Q1016

METAR LFRD 071500Z AUTO 02008KT CAVOK 32/15 Q1015 NOSIG

METAR LFRC 071500Z AUTO 07007KT CAVOK 31/14 Q1017 NOSIG